Estancia Bella Vista, Argentina
Current Conditions -  °F | °C
As of 5:00 AM on Wednesday 22 Oct 2014 (Local Time) from SAZN Reporting Station
Clear Clear  
Wind Chill: 19°   Ceiling: Unl
Heat Index: 19°   Visibility: 6mi
Dew Point:   Wind: 3mph
Humidity: 46%   Direction: 250°WSW
Pressure: 29.88"   Gusts: NA
Location:  42.13°S, 64.69°W
Report Text: SAZN 220800Z 25003KT CAVOK 19/07 Q1012
Loading
Personal Weather Stations






























Interactive Weather Map
Tropical Storm Tracking
New forecast layout! Learn more

10-Day Weather Forecast

Advertisements
Track Severe Weather on mobile